createdAt,value
2018-06-15T00:00:16.919Z,101178.85
2018-06-15T00:02:49.437Z,101174.69
2018-06-15T00:05:17.780Z,101172.85
2018-06-15T00:07:46.165Z,101175.53
2018-06-15T00:10:14.535Z,101173.52
2018-06-15T00:12:42.940Z,101174.67
2018-06-15T00:15:11.347Z,101176.81
2018-06-15T00:17:39.735Z,101170.83
2018-06-15T00:20:08.116Z,101169.80
2018-06-15T00:22:36.549Z,101173.00
2018-06-15T00:25:04.943Z,101170.64
2018-06-15T00:27:33.288Z,101164.45
2018-06-15T00:30:01.767Z,101167.66
2018-06-15T00:32:30.175Z,101166.63
2018-06-15T00:34:58.607Z,101172.47
2018-06-15T00:37:27.027Z,101170.83
2018-06-15T00:39:55.387Z,101173.50
2018-06-15T00:42:23.851Z,101175.83
2018-06-15T00:44:52.196Z,101171.80
2018-06-15T00:47:20.599Z,101166.95
2018-06-15T00:49:48.935Z,101171.30
2018-06-15T00:52:17.335Z,101170.47
2018-06-15T00:54:45.705Z,101165.96
2018-06-15T00:57:25.411Z,101165.64
2018-06-15T00:59:53.755Z,101165.80
2018-06-15T01:02:22.155Z,101169.30
2018-06-15T01:04:50.515Z,101164.80
2018-06-15T01:07:18.989Z,101157.28
2018-06-15T01:09:47.361Z,101157.28
2018-06-15T01:12:15.799Z,101160.98
2018-06-15T01:14:44.282Z,101155.64
2018-06-15T01:17:12.689Z,101151.10
2018-06-15T01:19:41.140Z,101148.77
2018-06-15T01:22:09.490Z,101152.63
2018-06-15T01:24:37.971Z,101146.95
2018-06-15T01:27:06.392Z,101150.12
2018-06-15T01:29:34.734Z,101142.44
2018-06-15T01:32:03.017Z,101144.95
2018-06-15T01:34:31.433Z,101137.75
2018-06-15T01:36:59.835Z,101140.26
2018-06-15T01:39:28.239Z,101136.77
2018-06-15T01:41:56.604Z,101133.44
2018-06-15T01:44:24.995Z,101133.78
2018-06-15T01:46:53.450Z,101135.11
2018-06-15T01:49:21.797Z,101134.11
2018-06-15T01:51:50.263Z,101135.30
2018-06-15T01:54:18.653Z,101133.80
2018-06-15T01:56:47.068Z,101135.81
2018-06-15T01:59:15.676Z,101133.44
2018-06-15T02:01:44.052Z,101132.45
2018-06-15T02:04:12.419Z,101137.12
2018-06-15T02:06:40.863Z,101133.78
2018-06-15T02:09:10.053Z,101133.44
2018-06-15T02:11:38.411Z,101131.46
2018-06-15T02:14:06.901Z,101131.13
2018-06-15T02:16:35.295Z,101129.45
2018-06-15T02:19:03.772Z,101131.13
2018-06-15T02:21:32.191Z,101128.45
2018-06-15T02:24:00.568Z,101127.95
2018-06-15T02:26:29.009Z,101125.78
2018-06-15T02:28:57.380Z,101133.45
2018-06-15T02:31:25.730Z,101135.63
2018-06-15T02:33:54.290Z,101136.62
2018-06-15T02:36:22.632Z,101134.11
2018-06-15T02:38:51.036Z,101135.45
2018-06-15T02:41:19.524Z,101137.80
2018-06-15T02:43:47.907Z,101133.30
2018-06-15T02:46:16.300Z,101136.47
2018-06-15T02:48:44.622Z,101133.30
2018-06-15T02:51:13.023Z,101131.80
2018-06-15T02:53:41.424Z,101129.79
2018-06-15T02:56:09.918Z,101127.45
2018-06-15T02:58:38.242Z,101138.78
2018-06-15T03:01:06.640Z,101139.48
2018-06-15T03:03:35.171Z,101143.48
2018-06-15T03:06:03.599Z,101134.80
2018-06-15T03:08:31.979Z,101144.48
2018-06-15T03:11:00.373Z,101145.81
2018-06-15T03:13:28.748Z,101142.13
2018-06-15T03:15:57.324Z,101145.14
2018-06-15T03:18:25.668Z,101144.80
2018-06-15T03:20:54.043Z,101150.98
2018-06-15T03:23:22.471Z,101148.98
2018-06-15T03:25:50.820Z,101148.49
2018-06-15T03:28:19.217Z,101150.16
2018-06-15T03:30:47.600Z,101151.15
2018-06-15T03:33:16.029Z,101154.16
2018-06-15T03:35:44.424Z,101152.48
2018-06-15T03:38:12.823Z,101154.31
2018-06-15T03:40:41.285Z,101153.32
2018-06-15T03:43:09.652Z,101152.82
2018-06-15T03:45:38.088Z,101155.49
2018-06-15T03:48:06.484Z,101156.83
2018-06-15T03:50:34.831Z,101157.67
2018-06-15T03:53:03.265Z,101164.19
2018-06-15T03:55:31.669Z,101170.87
2018-06-15T03:58:00.120Z,101165.52
2018-06-15T04:00:28.581Z,101174.38
2018-06-15T04:02:56.915Z,101171.05
2018-06-15T04:05:25.350Z,101172.88
2018-06-15T04:07:53.820Z,101175.39
2018-06-15T04:10:22.169Z,101176.23
2018-06-15T04:12:50.554Z,101177.23
2018-06-15T04:15:18.958Z,101179.24
2018-06-15T04:17:51.550Z,101181.91
2018-06-15T04:20:19.891Z,101176.57
2018-06-15T04:22:48.336Z,101181.28
2018-06-15T04:25:16.887Z,101181.97
2018-06-15T04:27:45.397Z,101179.94
2018-06-15T04:30:13.768Z,101183.45
2018-06-15T04:32:43.137Z,101181.45
2018-06-15T04:35:11.507Z,101182.63
2018-06-15T04:37:40.039Z,101177.95
2018-06-15T04:40:08.434Z,101180.97
2018-06-15T04:42:36.837Z,101172.61
2018-06-15T04:45:05.631Z,101182.47
2018-06-15T04:47:34.045Z,101180.30
2018-06-15T04:50:02.487Z,101184.64
2018-06-15T04:52:37.331Z,101184.30
2018-06-15T04:55:06.311Z,101182.97
2018-06-15T04:57:34.719Z,101189.98
2018-06-15T05:00:03.207Z,101193.34
2018-06-15T05:02:31.601Z,101188.31
2018-06-15T05:05:00.602Z,101163.67
2018-06-15T05:07:29.181Z,101191.64
2018-06-15T05:09:57.823Z,101191.98
2018-06-15T05:12:26.179Z,101192.50
2018-06-15T05:14:54.688Z,101193.85
2018-06-15T05:17:23.119Z,101197.34
2018-06-15T05:19:51.532Z,101194.02
2018-06-15T05:22:19.871Z,101198.36
2018-06-15T05:24:48.328Z,101202.87
2018-06-15T05:27:16.694Z,101203.88
2018-06-15T05:29:45.092Z,101203.38
2018-06-15T05:32:13.501Z,101202.05
2018-06-15T05:34:41.874Z,101201.71
2018-06-15T05:37:10.263Z,101202.39
2018-06-15T05:39:38.651Z,101199.05
2018-06-15T05:42:07.044Z,101197.89
2018-06-15T05:44:36.655Z,101197.23
2018-06-15T05:47:05.147Z,101202.38
2018-06-15T05:49:33.671Z,101204.39
2018-06-15T05:52:02.116Z,101203.39
2018-06-15T05:54:30.535Z,101202.39
2018-06-15T05:56:58.961Z,101200.56
2018-06-15T05:59:27.388Z,101203.41
2018-06-15T06:01:55.827Z,101198.73
2018-06-15T06:04:24.211Z,101196.07
2018-06-15T06:06:52.629Z,101206.41
2018-06-15T06:09:21.002Z,101211.27
2018-06-15T06:11:49.387Z,101217.13
2018-06-15T06:14:17.807Z,101213.10
2018-06-15T06:16:46.202Z,101221.48
2018-06-15T06:19:14.615Z,101227.49
2018-06-15T06:21:43.057Z,101230.83
2018-06-15T06:24:11.448Z,101234.48
2018-06-15T06:26:39.854Z,101235.98
2018-06-15T06:29:08.328Z,101236.32
2018-06-15T06:31:36.929Z,101235.16
2018-06-15T06:34:05.315Z,101230.98
2018-06-15T06:36:33.797Z,101236.17
2018-06-15T06:39:02.249Z,101234.84
2018-06-15T06:41:30.647Z,101238.53
2018-06-15T06:43:59.114Z,101241.86
2018-06-15T06:46:27.639Z,101237.17
2018-06-15T06:48:56.092Z,101240.84
2018-06-15T06:51:24.513Z,101241.34
2018-06-15T06:53:52.930Z,101248.55
2018-06-15T06:56:21.308Z,101248.53
2018-06-15T06:58:49.776Z,101251.22
2018-06-15T07:01:18.504Z,101249.22
2018-06-15T07:03:46.984Z,101251.57
2018-06-15T07:06:15.470Z,101252.25
2018-06-15T07:08:44.413Z,101251.75
2018-06-15T07:11:12.920Z,101251.25
2018-06-15T07:13:41.371Z,101245.54
2018-06-15T07:16:09.694Z,101244.21
2018-06-15T07:18:38.164Z,101250.58
2018-06-15T07:21:06.629Z,101249.92
2018-06-15T07:23:35.062Z,101246.55
2018-06-15T07:26:03.693Z,101236.02
2018-06-15T07:28:32.068Z,101246.23
2018-06-15T07:31:00.707Z,101247.61
2018-06-15T07:33:29.188Z,101245.27
2018-06-15T07:35:57.607Z,101244.23
2018-06-15T07:38:26.179Z,101243.24
2018-06-15T07:40:54.568Z,101241.38
2018-06-15T07:43:28.679Z,101243.39
2018-06-15T07:45:57.267Z,101238.38
2018-06-15T07:48:25.683Z,101238.17
2018-06-15T07:50:54.066Z,101237.17
2018-06-15T07:53:22.492Z,101237.84
2018-06-15T07:55:51.028Z,101236.50
2018-06-15T07:58:19.438Z,101241.19
2018-06-15T08:00:47.859Z,101244.88
2018-06-15T08:03:16.527Z,101244.38
2018-06-15T08:05:44.970Z,101244.03
2018-06-15T08:08:13.859Z,101249.89
2018-06-15T08:10:42.243Z,101246.55
2018-06-15T08:13:10.635Z,101251.93
2018-06-15T08:15:39.055Z,101243.23
2018-06-15T08:18:07.451Z,101244.73
2018-06-15T08:20:35.851Z,101240.89
2018-06-15T08:23:04.265Z,101240.52
2018-06-15T08:25:32.648Z,101236.50
2018-06-15T08:28:01.044Z,101236.50
2018-06-15T08:30:46.250Z,101238.52
2018-06-15T08:36:01.616Z,101240.19
2018-06-15T08:38:30.009Z,101235.83
2018-06-15T08:40:58.414Z,101239.18
2018-06-15T08:43:26.743Z,101232.48
2018-06-15T08:45:55.121Z,101231.81
2018-06-15T08:48:23.571Z,101236.20
2018-06-15T08:50:51.951Z,101235.70
2018-06-15T08:53:20.328Z,101239.55
2018-06-15T08:55:48.809Z,101238.05
2018-06-15T08:58:17.301Z,101234.16
2018-06-15T09:00:45.668Z,101237.51
2018-06-15T09:03:14.080Z,101245.55
2018-06-15T09:05:42.646Z,101243.87
2018-06-15T09:08:11.087Z,101240.69
2018-06-15T09:10:39.502Z,101227.47
2018-06-15T09:13:08.189Z,101233.66
2018-06-15T09:15:36.598Z,101226.96
2018-06-15T09:18:05.364Z,101221.91
2018-06-15T09:20:34.211Z,101228.77
2018-06-15T09:23:02.610Z,101230.44
2018-06-15T09:25:31.951Z,101236.13
2018-06-15T09:28:00.389Z,101232.11
2018-06-15T09:30:28.787Z,101230.77
2018-06-15T09:32:57.252Z,101229.59
2018-06-15T09:35:25.625Z,101226.92
2018-06-15T09:37:54.035Z,101232.61
2018-06-15T09:40:22.450Z,101228.09
2018-06-15T09:42:50.863Z,101230.27
2018-06-15T09:45:19.291Z,101228.55
2018-06-15T09:47:47.703Z,101235.41
2018-06-15T09:50:16.070Z,101230.37
2018-06-15T09:52:44.450Z,101233.87
2018-06-15T09:55:12.823Z,101230.34
2018-06-15T09:57:41.148Z,101229.78
2018-06-15T10:00:09.523Z,101226.87
2018-06-15T10:02:38.000Z,101227.80
2018-06-15T10:05:06.369Z,101230.27
2018-06-15T10:07:34.727Z,101228.71
2018-06-15T10:10:03.049Z,101233.86
2018-06-15T10:12:31.460Z,101234.30
2018-06-15T10:14:59.819Z,101226.56
2018-06-15T10:17:28.619Z,101227.23
2018-06-15T10:19:57.040Z,101224.73
2018-06-15T10:22:25.444Z,101227.90
2018-06-15T10:24:53.807Z,101224.84
2018-06-15T10:27:22.301Z,101217.58
2018-06-15T10:29:50.643Z,101213.46
2018-06-15T10:32:19.042Z,101218.48
2018-06-15T10:34:47.424Z,101219.73
2018-06-15T10:37:15.803Z,101216.41
2018-06-15T10:39:44.215Z,101212.71
2018-06-15T10:42:12.567Z,101211.23
2018-06-15T10:44:40.999Z,101208.75
2018-06-15T10:47:09.433Z,101202.89
2018-06-15T10:49:37.812Z,101203.05
2018-06-15T10:52:06.272Z,101203.25
2018-06-15T10:54:34.679Z,101202.38
2018-06-15T10:57:03.065Z,101209.70
2018-06-15T10:59:31.480Z,101210.16
2018-06-15T11:01:59.875Z,101205.31
2018-06-15T11:04:28.717Z,101201.50
2018-06-15T11:06:57.223Z,101205.39
2018-06-15T11:09:25.743Z,101194.14
2018-06-15T11:11:54.149Z,101196.45
2018-06-15T11:14:22.648Z,101202.07
2018-06-15T11:16:51.001Z,101194.46
2018-06-15T11:19:19.348Z,101191.20
2018-06-15T11:21:47.775Z,101194.05
2018-06-15T11:24:16.155Z,101187.73
2018-06-15T11:26:44.551Z,101186.75
2018-06-15T11:29:12.883Z,101186.15
2018-06-15T11:31:41.292Z,101180.55
2018-06-15T11:34:09.651Z,101176.58
2018-06-15T11:36:38.070Z,101180.11
2018-06-15T11:39:08.556Z,101168.77
2018-06-15T11:41:36.984Z,101168.70
2018-06-15T11:44:05.875Z,101167.45
2018-06-15T11:46:34.272Z,101167.44
2018-06-15T11:49:02.753Z,101164.41
2018-06-15T11:51:31.140Z,101166.59
2018-06-15T11:53:59.543Z,101165.66
2018-06-15T11:56:27.947Z,101166.50
2018-06-15T11:58:56.348Z,101159.15
2018-06-15T12:01:24.751Z,101155.30
2018-06-15T12:03:53.111Z,101165.06
2018-06-15T12:06:22.055Z,101160.16
2018-06-15T12:08:50.463Z,101158.85
2018-06-15T12:11:18.811Z,101156.61
2018-06-15T12:13:47.205Z,101153.64
2018-06-15T12:16:15.659Z,101149.41
2018-06-15T12:18:43.999Z,101147.87
2018-06-15T12:21:12.384Z,101150.41
2018-06-15T12:23:40.697Z,101143.62
2018-06-15T12:26:09.112Z,101138.41
2018-06-15T12:28:37.520Z,101145.69
2018-06-15T12:31:06.031Z,101151.14
2018-06-15T12:33:34.443Z,101150.27
2018-06-15T12:36:02.857Z,101147.64
2018-06-15T12:38:31.630Z,101142.33
2018-06-15T12:41:00.044Z,101139.38
2018-06-15T12:43:28.443Z,101145.42
2018-06-15T12:45:57.158Z,101146.00
2018-06-15T12:48:25.497Z,101147.73
2018-06-15T12:50:53.990Z,101146.47
2018-06-15T12:53:22.446Z,101154.28
2018-06-15T12:55:51.031Z,101142.08
2018-06-15T12:58:19.537Z,101141.05
2018-06-15T13:00:48.042Z,101140.27
2018-06-15T13:03:16.460Z,101139.48
2018-06-15T13:05:44.786Z,101137.45
2018-06-15T13:08:13.184Z,101140.78
2018-06-15T13:10:41.580Z,101138.30
2018-06-15T13:13:09.909Z,101139.47
2018-06-15T13:15:38.969Z,101137.20
2018-06-15T13:18:07.480Z,101139.20
2018-06-15T13:20:35.916Z,101136.00
2018-06-15T13:23:04.339Z,101138.34
2018-06-15T13:25:32.997Z,101148.03
2018-06-15T13:28:01.353Z,101150.91
2018-06-15T13:30:29.910Z,101149.77
2018-06-15T13:32:58.588Z,101145.91
2018-06-15T13:35:27.135Z,101142.58
2018-06-15T13:37:55.606Z,101143.22
2018-06-15T13:40:23.966Z,101135.91
2018-06-15T13:42:52.269Z,101146.69
2018-06-15T13:45:20.648Z,101145.41
2018-06-15T13:47:49.022Z,101136.77
2018-06-15T13:50:17.411Z,101132.55
2018-06-15T13:52:45.806Z,101122.87
2018-06-15T13:55:14.171Z,101133.48
2018-06-15T13:57:42.746Z,101132.91
2018-06-15T14:00:11.224Z,101130.98
2018-06-15T14:02:39.633Z,101134.73
2018-06-15T14:05:08.097Z,101130.78
2018-06-15T14:07:36.535Z,101125.84
2018-06-15T14:10:05.225Z,101124.47
2018-06-15T14:12:33.707Z,101127.42
2018-06-15T14:15:02.215Z,101127.09
2018-06-15T14:17:30.692Z,101122.00
2018-06-15T14:19:59.064Z,101125.63
2018-06-15T14:22:27.558Z,101127.85
2018-06-15T14:24:56.056Z,101123.66
2018-06-15T14:27:24.519Z,101120.08
2018-06-15T14:29:53.006Z,101121.81
2018-06-15T14:32:21.409Z,101110.63
2018-06-15T14:34:49.825Z,101107.07
2018-06-15T14:37:18.224Z,101109.53
2018-06-15T14:39:47.886Z,101105.63
2018-06-15T14:42:16.329Z,101102.66
2018-06-15T14:44:44.785Z,101103.59
2018-06-15T14:47:13.301Z,101100.89
2018-06-15T14:49:41.867Z,101102.64
2018-06-15T14:52:10.366Z,101094.11
2018-06-15T14:54:39.455Z,101094.81
2018-06-15T14:57:07.921Z,101106.52
2018-06-15T14:59:36.300Z,101093.88
2018-06-15T15:02:04.925Z,101091.61
2018-06-15T15:04:33.427Z,101089.96
2018-06-15T15:07:01.843Z,101082.56
2018-06-15T15:09:30.292Z,101085.27
2018-06-15T15:11:58.695Z,101082.64
2018-06-15T15:14:27.078Z,101091.04
2018-06-15T15:16:55.579Z,101084.91
2018-06-15T15:19:24.070Z,101080.63
2018-06-15T15:21:52.524Z,101087.30
2018-06-15T15:24:21.023Z,101088.02
2018-06-15T15:26:49.764Z,101085.01
2018-06-15T15:29:18.232Z,101083.97
2018-06-15T15:31:46.845Z,101086.87
2018-06-15T15:34:15.346Z,101086.94
2018-06-15T15:36:43.897Z,101088.42
2018-06-15T15:39:12.395Z,101090.87
2018-06-15T15:41:40.807Z,101082.25
2018-06-15T15:44:09.439Z,101083.13
2018-06-15T15:46:37.781Z,101075.22
2018-06-15T15:49:06.164Z,101073.74
2018-06-15T15:51:34.613Z,101069.35
2018-06-15T15:54:02.979Z,101068.94
2018-06-15T15:56:31.352Z,101063.39
2018-06-15T15:58:59.775Z,101061.83
2018-06-15T16:01:28.188Z,101057.26
2018-06-15T16:03:56.575Z,101062.55
2018-06-15T16:06:25.025Z,101057.65
2018-06-15T16:08:53.416Z,101064.14
2018-06-15T16:11:21.793Z,101057.87
2018-06-15T16:13:50.171Z,101059.12
2018-06-15T16:16:18.676Z,101060.66
2018-06-15T16:18:47.092Z,101058.53
2018-06-15T16:21:15.568Z,101060.31
2018-06-15T16:23:43.991Z,101055.14
2018-06-15T16:26:12.931Z,101056.70
2018-06-15T16:28:41.361Z,101050.27
2018-06-15T16:31:09.747Z,101052.77
2018-06-15T16:33:38.159Z,101057.27
2018-06-15T16:36:06.647Z,101058.15
2018-06-15T16:38:35.035Z,101052.95
2018-06-15T16:41:03.522Z,101056.66
2018-06-15T16:43:31.887Z,101050.23
2018-06-15T16:46:00.427Z,101054.23
2018-06-15T16:48:28.932Z,101053.83
2018-06-15T16:50:57.348Z,101037.45
2018-06-15T16:53:25.760Z,101044.66
2018-06-15T16:55:54.151Z,101043.98
2018-06-15T16:58:22.523Z,101044.34
2018-06-15T17:00:50.900Z,101048.33
2018-06-15T17:03:19.285Z,101053.15
2018-06-15T17:05:47.704Z,101050.67
2018-06-15T17:08:16.495Z,101055.56
2018-06-15T17:10:44.824Z,101055.88
2018-06-15T17:13:13.231Z,101052.29
2018-06-15T17:15:41.719Z,101053.42
2018-06-15T17:18:10.112Z,101053.02
2018-06-15T17:20:38.575Z,101052.73
2018-06-15T17:23:07.034Z,101055.09
2018-06-15T17:25:35.372Z,101054.92
2018-06-15T17:28:03.771Z,101059.83
2018-06-15T17:30:32.146Z,101060.11
2018-06-15T17:33:00.579Z,101065.66
2018-06-15T17:35:30.057Z,101064.33
2018-06-15T17:37:58.419Z,101061.41
2018-06-15T17:40:27.345Z,101065.70
2018-06-15T17:42:55.652Z,101066.97
2018-06-15T17:45:24.076Z,101064.65
2018-06-15T17:47:52.467Z,101066.11
2018-06-15T17:50:20.928Z,101072.30
2018-06-15T17:52:49.329Z,101075.31
2018-06-15T17:55:17.689Z,101077.84
2018-06-15T17:57:46.102Z,101079.55
2018-06-15T18:00:14.546Z,101079.62
2018-06-15T18:02:42.876Z,101077.93
2018-06-15T18:05:11.230Z,101072.09
2018-06-15T18:07:39.608Z,101074.09
2018-06-15T18:10:08.007Z,101076.41
2018-06-15T18:12:36.412Z,101082.78
2018-06-15T18:15:04.836Z,101079.78
2018-06-15T18:17:33.538Z,101082.50
2018-06-15T18:20:01.912Z,101079.77
2018-06-15T18:22:30.284Z,101078.41
2018-06-15T18:24:58.687Z,101080.66
2018-06-15T18:27:27.123Z,101082.86
2018-06-15T18:29:55.565Z,101083.03
2018-06-15T18:32:24.016Z,101075.86
2018-06-15T18:34:52.367Z,101081.97
2018-06-15T18:37:20.795Z,101071.08
2018-06-15T18:39:49.185Z,101079.41
2018-06-15T18:42:17.581Z,101078.06
2018-06-15T18:44:46.057Z,101077.83
2018-06-15T18:47:14.483Z,101077.27
2018-06-15T18:49:42.837Z,101073.73
2018-06-15T18:52:11.195Z,101074.65
2018-06-15T18:54:39.673Z,101070.56
2018-06-15T18:57:08.111Z,101079.79
2018-06-15T18:59:36.908Z,101076.86
2018-06-15T19:02:05.595Z,101070.20
2018-06-15T19:04:34.108Z,101071.84
2018-06-15T19:07:02.541Z,101072.62
2018-06-15T19:09:30.942Z,101075.91
2018-06-15T19:11:59.872Z,101076.30
2018-06-15T19:14:28.313Z,101071.50
2018-06-15T19:16:56.761Z,101076.44
2018-06-15T19:19:25.160Z,101077.56
2018-06-15T19:21:53.567Z,101077.95
2018-06-15T19:24:22.050Z,101075.33
2018-06-15T19:26:50.437Z,101070.97
2018-06-15T19:29:18.803Z,101067.00
2018-06-15T19:31:47.293Z,101075.50
2018-06-15T19:34:15.684Z,101074.22
2018-06-15T19:36:44.056Z,101075.95
2018-06-15T19:39:12.455Z,101077.87
2018-06-15T19:41:40.903Z,101082.84
2018-06-15T19:44:09.249Z,101084.25
2018-06-15T19:46:37.667Z,101079.57
2018-06-15T19:49:06.164Z,101079.44
2018-06-15T19:51:34.575Z,101088.55
2018-06-15T19:54:02.948Z,101087.06
2018-06-15T19:56:31.299Z,101081.27
2018-06-15T19:58:59.807Z,101089.20
2018-06-15T20:01:28.102Z,101088.44
2018-06-15T20:03:56.431Z,101091.70
2018-06-15T20:06:24.919Z,101087.84
2018-06-15T20:08:53.248Z,101084.70
2018-06-15T20:11:21.653Z,101085.08
2018-06-15T20:13:50.037Z,101083.80
2018-06-15T20:16:18.445Z,101078.98
2018-06-15T20:18:46.807Z,101075.04
2018-06-15T20:21:15.184Z,101086.17
2018-06-15T20:23:43.760Z,101081.69
2018-06-15T20:26:12.385Z,101074.50
2018-06-15T20:28:40.844Z,101073.86
2018-06-15T20:31:09.330Z,101076.77
2018-06-15T20:33:37.700Z,101084.19
2018-06-15T20:36:07.323Z,101090.45
2018-06-15T20:38:35.819Z,101088.33
2018-06-15T20:41:04.229Z,101084.05
2018-06-15T20:43:32.627Z,101083.78
2018-06-15T20:46:01.011Z,101086.70
2018-06-15T20:48:29.786Z,101084.60
2018-06-15T20:50:58.163Z,101081.64
2018-06-15T20:53:26.560Z,101082.33
2018-06-15T20:55:54.890Z,101081.55
2018-06-15T20:58:23.222Z,101077.56
2018-06-15T21:00:51.761Z,101073.91
2018-06-15T21:03:20.287Z,101075.62
2018-06-15T21:05:48.771Z,101073.30
2018-06-15T21:08:18.131Z,101070.98
2018-06-15T21:10:46.587Z,101067.13
2018-06-15T21:13:14.999Z,101069.20
2018-06-15T21:15:43.402Z,101074.25
2018-06-15T21:18:11.887Z,101062.34
2018-06-15T21:20:40.310Z,101071.23
2018-06-15T21:23:08.827Z,101070.04
2018-06-15T21:25:37.180Z,101065.17
2018-06-15T21:28:05.507Z,101061.52
2018-06-15T21:30:33.849Z,101063.55
2018-06-15T21:33:02.244Z,101059.75
2018-06-15T21:35:30.619Z,101062.00
2018-06-15T21:37:59.023Z,101063.70
2018-06-15T21:40:27.455Z,101067.09
2018-06-15T21:42:55.831Z,101071.77
2018-06-15T21:45:24.258Z,101061.53
2018-06-15T21:47:53.422Z,101064.22
2018-06-15T21:50:21.827Z,101066.58
2018-06-15T21:52:50.163Z,101060.92
2018-06-15T21:55:18.553Z,101064.48
2018-06-15T21:57:46.889Z,101064.55
2018-06-15T22:00:15.323Z,101058.53
2018-06-15T22:02:43.701Z,101064.27
2018-06-15T22:05:12.093Z,101065.64
2018-06-15T22:07:40.491Z,101061.29
2018-06-15T22:10:08.987Z,101064.30
2018-06-15T22:12:37.427Z,101061.17
2018-06-15T22:15:05.895Z,101067.09
2018-06-15T22:17:34.261Z,101059.94
2018-06-15T22:20:02.628Z,101063.20
2018-06-15T22:22:31.010Z,101057.00
2018-06-15T22:24:59.391Z,101061.53
2018-06-15T22:27:27.935Z,101061.53
2018-06-15T22:29:56.445Z,101052.50
2018-06-15T22:32:24.869Z,101060.40
2018-06-15T22:34:53.279Z,101061.41
2018-06-15T22:37:21.707Z,101064.60
2018-06-15T22:39:50.187Z,101063.33
2018-06-15T22:42:18.604Z,101068.36
2018-06-15T22:44:46.951Z,101066.55
2018-06-15T22:47:15.375Z,101064.55
2018-06-15T22:49:43.797Z,101066.91
2018-06-15T22:52:12.146Z,101069.08
2018-06-15T22:54:40.545Z,101077.45
2018-06-15T22:57:08.922Z,101072.59
2018-06-15T22:59:37.296Z,101075.45
2018-06-15T23:02:05.723Z,101078.82
2018-06-15T23:04:34.175Z,101074.30
2018-06-15T23:07:02.531Z,101077.81
2018-06-15T23:09:31.019Z,101074.80
2018-06-15T23:11:59.468Z,101079.16
2018-06-15T23:14:27.827Z,101070.66
2018-06-15T23:16:56.295Z,101068.78
2018-06-15T23:19:24.731Z,101073.46
2018-06-15T23:21:53.093Z,101071.61
2018-06-15T23:24:21.394Z,101074.68
2018-06-15T23:26:49.816Z,101071.84
2018-06-15T23:29:18.164Z,101071.52
2018-06-15T23:31:46.665Z,101070.86
2018-06-15T23:34:15.027Z,101066.52
2018-06-15T23:36:43.419Z,101074.91
2018-06-15T23:39:11.792Z,101070.08
2018-06-15T23:41:40.267Z,101072.34
2018-06-15T23:44:08.696Z,101070.70
2018-06-15T23:46:37.203Z,101069.08
2018-06-15T23:49:05.639Z,101068.27
2018-06-15T23:51:33.948Z,101071.13
2018-06-15T23:54:02.396Z,101072.28
2018-06-15T23:56:30.784Z,101069.94
2018-06-15T23:58:59.155Z,101074.31
